createdAt,value
2023-01-25T00:00:00.684Z,21.7
2023-01-25T00:05:00.633Z,23.4
2023-01-25T00:10:00.647Z,23.6
2023-01-25T00:15:00.640Z,26.5
2023-01-25T00:20:00.658Z,24.1
2023-01-25T00:25:00.609Z,25.0
2023-01-25T00:30:00.643Z,25.8
2023-01-25T00:35:00.673Z,23.2
2023-01-25T00:40:00.645Z,25.7
2023-01-25T00:45:00.651Z,24.1
2023-01-25T00:50:00.644Z,22.5
2023-01-25T00:55:00.647Z,26.9
2023-01-25T01:00:00.657Z,22.1
2023-01-25T01:05:00.741Z,23.6
2023-01-25T01:10:00.640Z,24.5
2023-01-25T01:15:00.612Z,23.0
2023-01-25T01:20:00.663Z,21.0
2023-01-25T01:25:00.662Z,25.0
2023-01-25T01:30:00.649Z,23.2
2023-01-25T01:35:00.620Z,22.0
2023-01-25T01:40:00.662Z,23.6
2023-01-25T01:45:00.610Z,19.4
2023-01-25T01:50:00.649Z,19.2
2023-01-25T01:55:00.651Z,17.7
2023-01-25T02:00:00.650Z,16.7
2023-01-25T02:05:00.631Z,15.1
2023-01-25T02:10:00.666Z,17.2
2023-01-25T02:15:00.632Z,17.9
2023-01-25T02:20:00.655Z,20.0
2023-01-25T02:25:00.651Z,17.6
2023-01-25T02:30:00.660Z,20.4
2023-01-25T02:35:00.603Z,18.2
2023-01-25T02:40:00.655Z,18.0
2023-01-25T02:45:00.654Z,20.8
2023-01-25T02:50:00.636Z,17.0
2023-01-25T02:55:00.622Z,20.0
2023-01-25T03:00:00.876Z,21.3
2023-01-25T03:05:00.613Z,20.0
2023-01-25T03:10:00.665Z,18.0
2023-01-25T03:15:00.641Z,18.5
2023-01-25T03:20:00.675Z,21.9
2023-01-25T03:25:00.616Z,19.1
2023-01-25T03:30:00.635Z,18.4
2023-01-25T03:35:00.660Z,23.6
2023-01-25T03:40:00.653Z,22.8
2023-01-25T03:45:00.639Z,26.1
2023-01-25T03:50:00.651Z,21.1
2023-01-25T03:55:00.641Z,18.6
2023-01-25T04:00:00.642Z,23.0
2023-01-25T04:05:00.648Z,25.2
2023-01-25T04:10:00.803Z,22.4
2023-01-25T04:15:00.609Z,23.3
2023-01-25T04:20:00.804Z,25.5
2023-01-25T04:25:00.608Z,23.6
2023-01-25T04:30:00.695Z,23.8
2023-01-25T04:35:00.646Z,20.8
2023-01-25T04:40:00.624Z,18.5
2023-01-25T04:45:00.614Z,18.5
2023-01-25T04:50:00.645Z,18.7
2023-01-25T04:55:00.613Z,18.9
2023-01-25T05:00:00.683Z,14.4
2023-01-25T05:05:00.639Z,14.1
2023-01-25T05:10:00.634Z,15.4
2023-01-25T05:15:00.615Z,17.2
2023-01-25T05:20:00.662Z,17.7
2023-01-25T05:25:00.654Z,16.8
2023-01-25T05:30:00.669Z,20.1
2023-01-25T05:35:01.097Z,17.3
2023-01-25T05:40:00.603Z,17.1
2023-01-25T05:45:00.639Z,17.4
2023-01-25T05:50:00.652Z,20.1
2023-01-25T05:55:00.625Z,18.6
2023-01-25T06:00:00.613Z,16.7
2023-01-25T06:05:00.640Z,16.7
2023-01-25T06:10:00.634Z,20.0
2023-01-25T06:15:00.626Z,17.6
2023-01-25T06:20:00.665Z,21.6
2023-01-25T06:25:00.637Z,23.9
2023-01-25T06:30:00.648Z,17.4
2023-01-25T06:35:00.643Z,16.1
2023-01-25T06:40:00.688Z,17.9
2023-01-25T06:45:00.633Z,17.0
2023-01-25T06:50:00.667Z,14.2
2023-01-25T06:55:00.602Z,18.3
2023-01-25T07:00:00.649Z,19.8
2023-01-25T07:05:00.638Z,18.0
2023-01-25T07:10:00.688Z,20.6
2023-01-25T07:15:00.675Z,19.8
2023-01-25T07:20:00.613Z,19.8
2023-01-25T07:25:00.676Z,20.2
2023-01-25T07:30:00.622Z,18.1
2023-01-25T07:35:00.682Z,16.3
2023-01-25T07:40:00.636Z,20.0
2023-01-25T07:45:00.645Z,23.1
2023-01-25T07:50:00.605Z,20.4
2023-01-25T07:55:00.823Z,21.5
2023-01-25T08:00:00.649Z,22.1
2023-01-25T08:05:00.610Z,22.7
2023-01-25T08:10:00.676Z,20.7
2023-01-25T08:15:00.625Z,24.5
2023-01-25T08:20:00.643Z,23.3
2023-01-25T08:25:00.635Z,22.2
2023-01-25T08:30:00.697Z,25.2
2023-01-25T08:35:00.607Z,23.3
2023-01-25T08:40:00.631Z,21.4
2023-01-25T08:45:00.832Z,21.1
2023-01-25T08:50:00.656Z,21.3
2023-01-25T08:55:00.644Z,21.4
2023-01-25T09:00:00.646Z,19.8
2023-01-25T09:05:00.623Z,24.2
2023-01-25T09:10:00.660Z,22.5
2023-01-25T09:15:00.662Z,22.5
2023-01-25T09:20:00.642Z,23.7
2023-01-25T09:25:00.614Z,22.7
2023-01-25T09:30:02.334Z,28.0
2023-01-25T09:35:00.613Z,25.8
2023-01-25T09:40:00.656Z,26.6
2023-01-25T09:45:00.639Z,28.7
2023-01-25T09:50:00.620Z,28.0
2023-01-25T09:55:00.640Z,27.3
2023-01-25T10:00:01.858Z,32.8
2023-01-25T10:05:00.614Z,32.3
2023-01-25T10:10:00.673Z,31.7
2023-01-25T10:15:00.652Z,33.3
2023-01-25T10:20:00.647Z,35.9
2023-01-25T10:25:00.627Z,36.9
2023-01-25T10:30:00.662Z,40.5
2023-01-25T10:35:01.660Z,40.0
2023-01-25T10:40:00.650Z,33.7
2023-01-25T10:45:00.918Z,34.4
2023-01-25T10:50:00.651Z,37.5
2023-01-25T10:55:00.632Z,38.2
2023-01-25T11:00:01.051Z,35.8
2023-01-25T11:05:00.628Z,34.1
2023-01-25T11:10:00.610Z,38.4
2023-01-25T11:15:00.658Z,37.6
2023-01-25T11:20:00.647Z,33.0
2023-01-25T11:25:00.610Z,36.5
2023-01-25T11:30:00.677Z,31.8
2023-01-25T11:35:00.618Z,36.4
2023-01-25T11:40:00.669Z,33.8
2023-01-25T11:45:00.643Z,41.7
2023-01-25T11:50:00.653Z,33.3
2023-01-25T11:55:00.614Z,29.9
2023-01-25T12:00:02.667Z,32.5
2023-01-25T12:05:06.279Z,33.1
2023-01-25T12:10:00.625Z,31.1
2023-01-25T12:15:00.651Z,32.1
2023-01-25T12:20:00.628Z,28.2
2023-01-25T12:25:00.656Z,29.4
2023-01-25T12:30:00.635Z,30.9
2023-01-25T12:35:00.650Z,26.0
2023-01-25T12:40:00.656Z,27.0
2023-01-25T12:45:00.617Z,26.8
2023-01-25T12:50:00.890Z,26.3
2023-01-25T12:55:00.646Z,27.5
2023-01-25T13:00:00.735Z,23.3
2023-01-25T13:05:00.660Z,28.3
2023-01-25T13:10:00.646Z,26.8
2023-01-25T13:15:00.624Z,24.1
2023-01-25T13:20:00.730Z,24.9
2023-01-25T13:25:00.641Z,26.5
2023-01-25T13:30:00.649Z,26.0
2023-01-25T13:35:00.667Z,25.2
2023-01-25T13:40:06.609Z,33.7
2023-01-25T13:45:00.674Z,27.1
2023-01-25T13:50:00.650Z,28.4
2023-01-25T13:55:00.673Z,35.0
2023-01-25T14:00:09.804Z,33.8
2023-01-25T14:05:00.618Z,33.6
2023-01-25T14:10:00.648Z,35.2
2023-01-25T14:15:00.609Z,31.4
2023-01-25T14:20:00.648Z,34.3
2023-01-25T14:25:00.687Z,37.4
2023-01-25T14:30:00.637Z,34.9
2023-01-25T14:35:00.648Z,34.7
2023-01-25T14:40:00.617Z,34.5
2023-01-25T14:45:00.699Z,38.7
2023-01-25T14:50:00.609Z,35.8
2023-01-25T14:55:00.640Z,44.3
2023-01-25T15:00:00.678Z,40.5
2023-01-25T15:05:02.854Z,38.3
2023-01-25T15:10:00.624Z,38.2
2023-01-25T15:15:00.659Z,41.3
2023-01-25T15:20:00.628Z,41.8
2023-01-25T15:25:00.653Z,39.1
2023-01-25T15:30:00.640Z,36.9
2023-01-25T15:35:02.311Z,35.7
2023-01-25T15:40:00.626Z,36.4
2023-01-25T15:45:00.652Z,35.2
2023-01-25T15:50:00.689Z,36.3
2023-01-25T15:55:02.101Z,37.1
2023-01-25T16:00:02.338Z,37.0
2023-01-25T16:05:00.652Z,38.8
2023-01-25T16:10:00.770Z,36.7
2023-01-25T16:15:00.613Z,35.4
2023-01-25T16:20:00.643Z,39.6
2023-01-25T16:25:00.671Z,37.5
2023-01-25T16:30:00.673Z,38.5
2023-01-25T16:35:00.606Z,33.9
2023-01-25T16:40:00.644Z,37.0
2023-01-25T16:45:00.603Z,39.1
2023-01-25T16:50:00.646Z,30.5
2023-01-25T16:55:00.664Z,38.9
2023-01-25T17:00:03.038Z,32.8
2023-01-25T17:05:00.667Z,35.0
2023-01-25T17:10:00.643Z,32.1
2023-01-25T17:15:00.617Z,34.9
2023-01-25T17:20:00.687Z,31.6
2023-01-25T17:25:00.680Z,35.2
2023-01-25T17:30:00.662Z,40.0
2023-01-25T17:35:00.639Z,37.8
2023-01-25T17:40:00.667Z,37.3
2023-01-25T17:45:00.639Z,48.6
2023-01-25T17:50:00.618Z,43.3
2023-01-25T17:55:00.682Z,43.4
2023-01-25T18:00:00.639Z,40.0
2023-01-25T18:05:00.651Z,41.7
2023-01-25T18:10:00.607Z,46.9
2023-01-25T18:15:00.652Z,50.0
2023-01-25T18:20:00.611Z,50.0
2023-01-25T18:25:00.671Z,45.6
2023-01-25T18:30:00.661Z,52.0
2023-01-25T18:35:00.653Z,53.2
2023-01-25T18:40:00.624Z,55.3
2023-01-25T18:45:00.640Z,57.8
2023-01-25T18:50:00.674Z,59.0
2023-01-25T18:55:00.612Z,57.1
2023-01-25T19:00:00.715Z,57.5
2023-01-25T19:05:00.666Z,52.8
2023-01-25T19:10:00.654Z,54.3
2023-01-25T19:15:00.613Z,55.5
2023-01-25T19:20:00.645Z,60.8
2023-01-25T19:25:00.642Z,52.3
2023-01-25T19:30:00.611Z,52.0
2023-01-25T19:35:00.725Z,45.8
2023-01-25T19:40:00.636Z,55.4
2023-01-25T19:45:00.637Z,57.4
2023-01-25T19:50:00.675Z,57.4
2023-01-25T19:55:00.615Z,60.2
2023-01-25T20:00:00.662Z,58.7
2023-01-25T20:05:00.648Z,45.8
2023-01-25T20:10:00.639Z,52.0
2023-01-25T20:15:00.619Z,57.8
2023-01-25T20:20:00.657Z,51.0
2023-01-25T20:25:00.634Z,50.3
2023-01-25T20:30:00.646Z,49.3
2023-01-25T20:35:00.624Z,43.2
2023-01-25T20:40:00.665Z,60.1
2023-01-25T20:45:00.620Z,48.9
2023-01-25T20:50:00.657Z,47.4
2023-01-25T20:55:00.676Z,43.8
2023-01-25T21:00:00.628Z,49.4
2023-01-25T21:05:00.655Z,51.0
2023-01-25T21:10:00.634Z,51.7
2023-01-25T21:15:00.643Z,51.8
2023-01-25T21:20:00.623Z,51.7
2023-01-25T21:25:00.690Z,55.0
2023-01-25T21:30:00.607Z,49.9
2023-01-25T21:35:00.619Z,50.3
2023-01-25T21:40:00.634Z,58.0
2023-01-25T21:45:00.642Z,50.8
2023-01-25T21:50:00.645Z,53.5
2023-01-25T21:55:00.666Z,60.1
2023-01-25T22:00:02.801Z,56.8
2023-01-25T22:05:00.628Z,60.4
2023-01-25T22:10:00.660Z,58.4
2023-01-25T22:15:00.662Z,64.9
2023-01-25T22:20:00.656Z,69.0
2023-01-25T22:25:00.611Z,60.0
2023-01-25T22:30:00.653Z,57.9
2023-01-25T22:35:00.655Z,58.4
2023-01-25T22:40:00.646Z,63.9
2023-01-25T22:45:00.625Z,59.7
2023-01-25T22:50:00.657Z,59.5
2023-01-25T22:55:00.636Z,57.4
2023-01-25T23:00:00.656Z,53.5
2023-01-25T23:05:00.604Z,56.4
2023-01-25T23:10:02.177Z,56.6
2023-01-25T23:15:00.601Z,58.3
2023-01-25T23:20:00.647Z,64.7
2023-01-25T23:25:00.642Z,50.4
2023-01-25T23:30:00.670Z,52.3
2023-01-25T23:35:00.614Z,56.2
2023-01-25T23:40:00.645Z,52.5
2023-01-25T23:45:00.672Z,62.1
2023-01-25T23:50:00.641Z,60.4
2023-01-25T23:55:00.671Z,75.4
